Aérodrome :
LOGIN :

S'inscrire | Disclaimer

   EN    FR    IT 

 










Légende :    VFR   VFR Marginal   IFR   IFR Intensif   IFR Très Intensif
Visi : 
Plafond : 
>= 8 km
>= 3000ft
5 à 8 km
1000 à 3000 ft
1500m à 5 km
500 à 1000 ft
800 à 1500m
200 à 500 ft
< 800m
< 200 ft
Symboles :   Orages  Brouillard  Fortes neiges  Fortes précipitations  Vent > 20 kt
SIGMETs :   Divers  Orages  Givrage  Turbulence  Onde Orograph.  Cendres Volcan.







- Altitude de l'aérodrome : 250 ft


LERI - Alcantarilla

DERNIER METAR :
  • 141700Z 13011KT 9999 FEW030TCU 31/21 Q1015 NOSIG

METARs EXPIRÉS :
  • 141600Z 14010KT 100V170 9999 FEW030TCU 33/21 Q1014 NOSIG
  • 141500Z 14013KT 110V170 9999 FEW020CB FEW030TCU 33/22 Q1014 NOSIG

TAF TAF LERI
Valide du 14 à 15h jusqu'au 15 à 00h UTC


141400Z 1415/1424 10009KT 9999 FEW030
PROB40
TEMPO 1415/1419 11012G22KT FEW030TCU SCT040
TEMPO 1422/1424 BKN014
Pas de NOTAMs connus pour ce terrain.



MET'MAP, la Météo Aéronautique d'un coup d'oeil ! - Copyright ORBIFLY Décembre 2007 - Disclaimer

ORBIFLY MET'MAP TEAM :

Programmation & Développement : Alexandra Zaïnal
Conception & Développement : Baudouin d'Aumeries
Co-Programmation & Développement : Marc-Olivier Méhu
Soutien technique & logistique : Manuel Goepfert

Contact : metmap@orbifly.com




SOURCES & CREDITS :

   NOAA